Levita, Texas
Current Conditions -  °F | °C
As of 10:55 AM on Saturday 22 Nov 2014 (Local Time) from KGOP Reporting Station
Overcast Overcast  
Wind Chill: 64°   Ceiling: 1000
Heat Index: 64°   Visibility: 10mi
Dew Point: 63°   Wind: 8mph
Humidity: 94%   Direction: 150°SSE
Pressure: 30"   Gusts: NA
Location:  31.392°N, 97.7452°W
Report Text: KGOP 221655Z AUTO 15007KT 10SM OVC010 18/17 A3000 RMK AO2 LTG DSNT SW AND W PWINO
Loading
Personal Weather Stations






























Interactive Weather Map New forecast layout! Learn more

10-Day Weather Forecast

Advertisements
Track Severe Weather on mobile